sensor_id;sensor_type;location;lat;lon;timestamp;P1;durP1;ratioP1;P2;durP2;ratioP2
68680;SDS011;55836;49.858;6.756;2023-01-19T00:01:03;15.93;;;10.13;;
68680;SDS011;55836;49.858;6.756;2023-01-19T00:03:29;16.60;;;10.23;;
68680;SDS011;55836;49.858;6.756;2023-01-19T00:05:55;13.73;;;9.20;;
68680;SDS011;55836;49.858;6.756;2023-01-19T00:08:21;15.33;;;10.03;;
68680;SDS011;55836;49.858;6.756;2023-01-19T00:10:47;17.07;;;10.27;;
68680;SDS011;55836;49.858;6.756;2023-01-19T00:13:15;13.90;;;8.87;;
68680;SDS011;55836;49.858;6.756;2023-01-19T00:15:42;13.27;;;8.80;;
68680;SDS011;55836;49.858;6.756;2023-01-19T00:18:08;13.23;;;9.30;;
68680;SDS011;55836;49.858;6.756;2023-01-19T00:20:34;17.53;;;10.33;;
68680;SDS011;55836;49.858;6.756;2023-01-19T00:23:00;14.33;;;10.37;;
68680;SDS011;55836;49.858;6.756;2023-01-19T00:25:27;16.27;;;9.97;;
68680;SDS011;55836;49.858;6.756;2023-01-19T00:27:53;14.67;;;9.53;;
68680;SDS011;55836;49.858;6.756;2023-01-19T00:30:19;19.57;;;9.93;;
68680;SDS011;55836;49.858;6.756;2023-01-19T00:32:45;12.93;;;8.50;;
68680;SDS011;55836;49.858;6.756;2023-01-19T00:35:11;12.73;;;8.30;;
68680;SDS011;55836;49.858;6.756;2023-01-19T00:37:37;13.53;;;9.33;;
68680;SDS011;55836;49.858;6.756;2023-01-19T00:40:03;14.73;;;9.33;;
68680;SDS011;55836;49.858;6.756;2023-01-19T00:42:29;14.20;;;9.67;;
68680;SDS011;55836;49.858;6.756;2023-01-19T00:45:06;16.10;;;10.07;;
68680;SDS011;55836;49.858;6.756;2023-01-19T00:47:32;18.70;;;10.60;;
68680;SDS011;55836;49.858;6.756;2023-01-19T00:49:58;21.33;;;10.80;;
68680;SDS011;55836;49.858;6.756;2023-01-19T00:52:24;16.40;;;9.80;;
68680;SDS011;55836;49.858;6.756;2023-01-19T00:54:50;16.10;;;10.43;;
68680;SDS011;55836;49.858;6.756;2023-01-19T00:57:16;14.57;;;9.77;;
68680;SDS011;55836;49.858;6.756;2023-01-19T00:59:43;18.63;;;10.13;;
68680;SDS011;55836;49.858;6.756;2023-01-19T01:02:09;18.77;;;11.50;;
68680;SDS011;55836;49.858;6.756;2023-01-19T01:04:36;15.23;;;10.03;;
68680;SDS011;55836;49.858;6.756;2023-01-19T01:07:02;20.33;;;10.07;;
68680;SDS011;55836;49.858;6.756;2023-01-19T01:09:28;17.10;;;10.77;;
68680;SDS011;55836;49.858;6.756;2023-01-19T01:11:54;17.50;;;10.43;;
68680;SDS011;55836;49.858;6.756;2023-01-19T01:14:21;15.03;;;10.63;;
68680;SDS011;55836;49.858;6.756;2023-01-19T01:16:47;18.47;;;11.57;;
68680;SDS011;55836;49.858;6.756;2023-01-19T01:19:13;18.30;;;10.80;;
68680;SDS011;55836;49.858;6.756;2023-01-19T01:21:40;16.30;;;10.17;;
68680;SDS011;55836;49.858;6.756;2023-01-19T01:24:06;14.13;;;9.97;;
68680;SDS011;55836;49.858;6.756;2023-01-19T01:26:32;20.00;;;10.90;;
68680;SDS011;55836;49.858;6.756;2023-01-19T01:28:58;18.97;;;11.63;;
68680;SDS011;55836;49.858;6.756;2023-01-19T01:31:24;19.90;;;10.40;;
68680;SDS011;55836;49.858;6.756;2023-01-19T01:33:51;16.07;;;10.00;;
68680;SDS011;55836;49.858;6.756;2023-01-19T01:36:17;18.30;;;10.97;;
68680;SDS011;55836;49.858;6.756;2023-01-19T01:38:43;15.63;;;10.20;;
68680;SDS011;55836;49.858;6.756;2023-01-19T01:41:09;17.47;;;11.63;;
68680;SDS011;55836;49.858;6.756;2023-01-19T01:43:42;16.47;;;11.07;;
68680;SDS011;55836;49.858;6.756;2023-01-19T01:46:08;15.67;;;10.47;;
68680;SDS011;55836;49.858;6.756;2023-01-19T01:48:34;14.23;;;10.50;;
68680;SDS011;55836;49.858;6.756;2023-01-19T01:51:03;17.60;;;10.07;;
68680;SDS011;55836;49.858;6.756;2023-01-19T01:53:58;14.97;;;10.50;;
68680;SDS011;55836;49.858;6.756;2023-01-19T01:56:29;16.93;;;10.07;;
68680;SDS011;55836;49.858;6.756;2023-01-19T01:58:57;13.73;;;10.07;;
68680;SDS011;55836;49.858;6.756;2023-01-19T02:01:24;15.97;;;10.37;;
68680;SDS011;55836;49.858;6.756;2023-01-19T02:04:08;16.37;;;9.87;;
68680;SDS011;55836;49.858;6.756;2023-01-19T02:06:34;14.07;;;10.17;;
68680;SDS011;55836;49.858;6.756;2023-01-19T02:09:19;19.57;;;10.87;;
68680;SDS011;55836;49.858;6.756;2023-01-19T02:12:04;16.83;;;11.70;;
68680;SDS011;55836;49.858;6.756;2023-01-19T02:14:48;14.93;;;10.23;;
68680;SDS011;55836;49.858;6.756;2023-01-19T02:17:14;14.37;;;10.20;;
68680;SDS011;55836;49.858;6.756;2023-01-19T02:19:41;17.53;;;10.80;;
68680;SDS011;55836;49.858;6.756;2023-01-19T02:22:15;15.37;;;10.60;;
68680;SDS011;55836;49.858;6.756;2023-01-19T02:24:43;17.87;;;10.03;;
68680;SDS011;55836;49.858;6.756;2023-01-19T02:27:09;15.77;;;10.87;;
68680;SDS011;55836;49.858;6.756;2023-01-19T02:29:36;16.70;;;11.30;;
68680;SDS011;55836;49.858;6.756;2023-01-19T02:32:02;17.33;;;11.43;;
68680;SDS011;55836;49.858;6.756;2023-01-19T02:34:29;18.20;;;11.17;;
68680;SDS011;55836;49.858;6.756;2023-01-19T02:36:57;15.13;;;10.93;;
68680;SDS011;55836;49.858;6.756;2023-01-19T02:39:26;17.77;;;11.60;;
68680;SDS011;55836;49.858;6.756;2023-01-19T02:41:54;16.00;;;10.53;;
68680;SDS011;55836;49.858;6.756;2023-01-19T02:44:21;15.73;;;10.70;;
68680;SDS011;55836;49.858;6.756;2023-01-19T02:46:48;17.70;;;11.00;;
68680;SDS011;55836;49.858;6.756;2023-01-19T02:49:14;16.37;;;11.43;;
68680;SDS011;55836;49.858;6.756;2023-01-19T02:51:41;17.63;;;11.20;;
68680;SDS011;55836;49.858;6.756;2023-01-19T02:56:51;21.00;;;11.13;;
68680;SDS011;55836;49.858;6.756;2023-01-19T03:01:55;17.53;;;11.00;;
68680;SDS011;55836;49.858;6.756;2023-01-19T03:06:52;19.03;;;11.80;;
68680;SDS011;55836;49.858;6.756;2023-01-19T03:12:09;18.17;;;11.00;;
68680;SDS011;55836;49.858;6.756;2023-01-19T03:14:39;18.03;;;11.67;;
68680;SDS011;55836;49.858;6.756;2023-01-19T03:17:07;20.30;;;11.77;;
68680;SDS011;55836;49.858;6.756;2023-01-19T03:19:41;18.47;;;11.93;;
68680;SDS011;55836;49.858;6.756;2023-01-19T03:22:12;17.97;;;11.27;;
68680;SDS011;55836;49.858;6.756;2023-01-19T03:24:39;21.40;;;12.57;;
68680;SDS011;55836;49.858;6.756;2023-01-19T03:27:17;19.17;;;12.13;;
68680;SDS011;55836;49.858;6.756;2023-01-19T03:29:47;17.70;;;11.43;;
68680;SDS011;55836;49.858;6.756;2023-01-19T03:32:15;18.40;;;12.63;;
68680;SDS011;55836;49.858;6.756;2023-01-19T03:34:42;15.53;;;11.33;;
68680;SDS011;55836;49.858;6.756;2023-01-19T03:37:09;17.73;;;11.43;;
68680;SDS011;55836;49.858;6.756;2023-01-19T03:39:35;17.77;;;12.50;;
68680;SDS011;55836;49.858;6.756;2023-01-19T03:42:03;20.23;;;12.80;;
68680;SDS011;55836;49.858;6.756;2023-01-19T03:44:31;20.83;;;12.80;;
68680;SDS011;55836;49.858;6.756;2023-01-19T03:46:58;18.90;;;13.23;;
68680;SDS011;55836;49.858;6.756;2023-01-19T03:49:24;20.63;;;12.63;;
68680;SDS011;55836;49.858;6.756;2023-01-19T03:51:53;18.60;;;12.30;;
68680;SDS011;55836;49.858;6.756;2023-01-19T03:54:19;21.43;;;13.57;;
68680;SDS011;55836;49.858;6.756;2023-01-19T03:56:45;20.03;;;13.03;;
68680;SDS011;55836;49.858;6.756;2023-01-19T03:59:11;21.13;;;13.67;;
68680;SDS011;55836;49.858;6.756;2023-01-19T04:01:41;21.43;;;14.73;;
68680;SDS011;55836;49.858;6.756;2023-01-19T04:04:07;18.57;;;13.17;;
68680;SDS011;55836;49.858;6.756;2023-01-19T04:06:33;23.23;;;13.07;;
68680;SDS011;55836;49.858;6.756;2023-01-19T04:09:00;24.43;;;14.30;;
68680;SDS011;55836;49.858;6.756;2023-01-19T04:11:26;20.03;;;14.27;;
68680;SDS011;55836;49.858;6.756;2023-01-19T04:13:52;20.87;;;13.03;;
68680;SDS011;55836;49.858;6.756;2023-01-19T04:16:18;20.50;;;12.30;;
68680;SDS011;55836;49.858;6.756;2023-01-19T04:18:45;23.20;;;13.27;;
68680;SDS011;55836;49.858;6.756;2023-01-19T04:21:11;21.23;;;13.90;;
68680;SDS011;55836;49.858;6.756;2023-01-19T04:23:37;17.53;;;12.60;;
68680;SDS011;55836;49.858;6.756;2023-01-19T04:26:04;19.80;;;12.33;;
68680;SDS011;55836;49.858;6.756;2023-01-19T04:28:30;21.00;;;13.13;;
68680;SDS011;55836;49.858;6.756;2023-01-19T04:30:57;17.50;;;12.07;;
68680;SDS011;55836;49.858;6.756;2023-01-19T04:33:23;17.57;;;11.73;;
68680;SDS011;55836;49.858;6.756;2023-01-19T04:35:50;20.33;;;11.47;;
68680;SDS011;55836;49.858;6.756;2023-01-19T04:38:17;17.73;;;12.30;;
68680;SDS011;55836;49.858;6.756;2023-01-19T04:40:43;17.50;;;12.00;;
68680;SDS011;55836;49.858;6.756;2023-01-19T04:43:10;19.67;;;11.70;;
68680;SDS011;55836;49.858;6.756;2023-01-19T04:45:36;20.77;;;16.63;;
68680;SDS011;55836;49.858;6.756;2023-01-19T04:48:02;19.03;;;11.30;;
68680;SDS011;55836;49.858;6.756;2023-01-19T04:50:29;16.80;;;10.80;;
68680;SDS011;55836;49.858;6.756;2023-01-19T04:52:55;17.17;;;10.83;;
68680;SDS011;55836;49.858;6.756;2023-01-19T04:55:22;16.37;;;10.13;;
68680;SDS011;55836;49.858;6.756;2023-01-19T04:57:48;19.43;;;11.97;;
68680;SDS011;55836;49.858;6.756;2023-01-19T05:00:14;17.20;;;11.40;;
68680;SDS011;55836;49.858;6.756;2023-01-19T05:02:40;17.23;;;10.47;;
68680;SDS011;55836;49.858;6.756;2023-01-19T05:05:09;15.17;;;10.87;;
68680;SDS011;55836;49.858;6.756;2023-01-19T05:07:36;13.00;;;9.53;;
68680;SDS011;55836;49.858;6.756;2023-01-19T05:10:02;13.80;;;9.70;;
68680;SDS011;55836;49.858;6.756;2023-01-19T05:12:28;16.73;;;10.20;;
68680;SDS011;55836;49.858;6.756;2023-01-19T05:14:54;11.83;;;9.00;;
68680;SDS011;55836;49.858;6.756;2023-01-19T05:17:20;15.37;;;9.77;;
68680;SDS011;55836;49.858;6.756;2023-01-19T05:19:46;12.93;;;9.07;;
68680;SDS011;55836;49.858;6.756;2023-01-19T05:22:13;15.73;;;11.40;;
68680;SDS011;55836;49.858;6.756;2023-01-19T05:24:39;18.07;;;10.30;;
68680;SDS011;55836;49.858;6.756;2023-01-19T05:27:05;16.47;;;9.47;;
68680;SDS011;55836;49.858;6.756;2023-01-19T05:29:31;13.00;;;8.63;;
68680;SDS011;55836;49.858;6.756;2023-01-19T05:31:58;12.33;;;8.83;;
68680;SDS011;55836;49.858;6.756;2023-01-19T05:34:24;12.77;;;8.77;;
68680;SDS011;55836;49.858;6.756;2023-01-19T05:36:50;11.97;;;8.70;;
68680;SDS011;55836;49.858;6.756;2023-01-19T05:39:16;11.57;;;9.50;;
68680;SDS011;55836;49.858;6.756;2023-01-19T05:41:42;13.40;;;9.53;;
68680;SDS011;55836;49.858;6.756;2023-01-19T05:44:11;12.17;;;8.50;;
68680;SDS011;55836;49.858;6.756;2023-01-19T05:46:38;11.10;;;8.23;;
68680;SDS011;55836;49.858;6.756;2023-01-19T05:49:04;13.33;;;8.97;;
68680;SDS011;55836;49.858;6.756;2023-01-19T05:51:31;15.43;;;9.77;;
68680;SDS011;55836;49.858;6.756;2023-01-19T05:54:02;11.70;;;9.27;;
68680;SDS011;55836;49.858;6.756;2023-01-19T05:56:28;14.57;;;9.37;;
68680;SDS011;55836;49.858;6.756;2023-01-19T05:58:54;13.60;;;9.63;;
68680;SDS011;55836;49.858;6.756;2023-01-19T06:01:20;11.17;;;7.83;;
68680;SDS011;55836;49.858;6.756;2023-01-19T06:03:46;16.13;;;9.57;;
68680;SDS011;55836;49.858;6.756;2023-01-19T06:06:12;13.00;;;8.50;;
68680;SDS011;55836;49.858;6.756;2023-01-19T06:08:39;12.07;;;7.70;;
68680;SDS011;55836;49.858;6.756;2023-01-19T06:11:05;12.93;;;8.93;;
68680;SDS011;55836;49.858;6.756;2023-01-19T06:13:32;15.87;;;9.20;;
68680;SDS011;55836;49.858;6.756;2023-01-19T06:15:58;13.30;;;9.90;;
68680;SDS011;55836;49.858;6.756;2023-01-19T06:18:25;11.90;;;8.10;;
68680;SDS011;55836;49.858;6.756;2023-01-19T06:20:51;13.30;;;9.53;;
68680;SDS011;55836;49.858;6.756;2023-01-19T06:23:22;13.03;;;10.00;;
68680;SDS011;55836;49.858;6.756;2023-01-19T06:25:49;15.70;;;10.57;;
68680;SDS011;55836;49.858;6.756;2023-01-19T06:28:15;12.67;;;9.77;;
68680;SDS011;55836;49.858;6.756;2023-01-19T06:30:41;14.63;;;9.40;;
68680;SDS011;55836;49.858;6.756;2023-01-19T06:33:07;14.77;;;10.37;;
68680;SDS011;55836;49.858;6.756;2023-01-19T06:35:33;11.33;;;9.67;;
68680;SDS011;55836;49.858;6.756;2023-01-19T06:37:59;14.60;;;10.57;;
68680;SDS011;55836;49.858;6.756;2023-01-19T06:40:25;12.07;;;9.10;;
68680;SDS011;55836;49.858;6.756;2023-01-19T06:42:52;14.23;;;10.17;;
68680;SDS011;55836;49.858;6.756;2023-01-19T06:45:18;12.50;;;8.80;;
68680;SDS011;55836;49.858;6.756;2023-01-19T06:47:46;14.47;;;9.43;;
68680;SDS011;55836;49.858;6.756;2023-01-19T06:50:12;12.23;;;8.73;;
68680;SDS011;55836;49.858;6.756;2023-01-19T06:52:39;16.20;;;10.47;;
68680;SDS011;55836;49.858;6.756;2023-01-19T06:55:07;15.73;;;9.30;;
68680;SDS011;55836;49.858;6.756;2023-01-19T06:57:34;12.43;;;9.83;;
68680;SDS011;55836;49.858;6.756;2023-01-19T07:00:02;13.30;;;9.53;;
68680;SDS011;55836;49.858;6.756;2023-01-19T07:02:31;14.90;;;9.27;;
68680;SDS011;55836;49.858;6.756;2023-01-19T07:04:57;14.70;;;8.47;;
68680;SDS011;55836;49.858;6.756;2023-01-19T07:07:23;14.63;;;9.27;;
68680;SDS011;55836;49.858;6.756;2023-01-19T07:09:50;12.27;;;8.53;;
68680;SDS011;55836;49.858;6.756;2023-01-19T07:12:16;14.37;;;9.67;;
68680;SDS011;55836;49.858;6.756;2023-01-19T07:14:42;13.70;;;8.77;;
68680;SDS011;55836;49.858;6.756;2023-01-19T07:17:08;13.97;;;9.67;;
68680;SDS011;55836;49.858;6.756;2023-01-19T07:19:35;17.23;;;10.77;;
68680;SDS011;55836;49.858;6.756;2023-01-19T07:22:01;13.33;;;8.87;;
68680;SDS011;55836;49.858;6.756;2023-01-19T07:24:27;13.93;;;9.93;;
68680;SDS011;55836;49.858;6.756;2023-01-19T07:26:54;13.17;;;9.40;;
68680;SDS011;55836;49.858;6.756;2023-01-19T07:29:21;13.90;;;9.20;;
68680;SDS011;55836;49.858;6.756;2023-01-19T07:31:47;18.07;;;9.70;;
68680;SDS011;55836;49.858;6.756;2023-01-19T07:34:14;11.73;;;8.40;;
68680;SDS011;55836;49.858;6.756;2023-01-19T07:36:40;14.87;;;9.43;;
68680;SDS011;55836;49.858;6.756;2023-01-19T07:39:06;12.93;;;8.53;;
68680;SDS011;55836;49.858;6.756;2023-01-19T07:41:32;13.77;;;9.53;;
68680;SDS011;55836;49.858;6.756;2023-01-19T07:43:58;15.73;;;9.77;;
68680;SDS011;55836;49.858;6.756;2023-01-19T07:46:24;13.00;;;9.33;;
68680;SDS011;55836;49.858;6.756;2023-01-19T07:48:50;12.27;;;9.00;;
68680;SDS011;55836;49.858;6.756;2023-01-19T07:51:16;14.93;;;8.63;;
68680;SDS011;55836;49.858;6.756;2023-01-19T07:53:43;11.67;;;8.77;;
68680;SDS011;55836;49.858;6.756;2023-01-19T07:56:09;16.03;;;9.47;;
68680;SDS011;55836;49.858;6.756;2023-01-19T07:58:36;12.53;;;8.50;;
68680;SDS011;55836;49.858;6.756;2023-01-19T08:01:08;11.70;;;8.67;;
68680;SDS011;55836;49.858;6.756;2023-01-19T08:03:35;15.53;;;8.37;;
68680;SDS011;55836;49.858;6.756;2023-01-19T08:06:01;16.60;;;10.00;;
68680;SDS011;55836;49.858;6.756;2023-01-19T08:08:29;10.70;;;9.47;;
68680;SDS011;55836;49.858;6.756;2023-01-19T08:10:55;12.67;;;8.43;;
68680;SDS011;55836;49.858;6.756;2023-01-19T08:13:21;15.90;;;8.23;;
68680;SDS011;55836;49.858;6.756;2023-01-19T08:15:48;10.50;;;7.50;;
68680;SDS011;55836;49.858;6.756;2023-01-19T08:18:15;12.17;;;8.53;;
68680;SDS011;55836;49.858;6.756;2023-01-19T08:20:41;13.20;;;8.47;;
68680;SDS011;55836;49.858;6.756;2023-01-19T08:23:07;13.50;;;8.97;;
68680;SDS011;55836;49.858;6.756;2023-01-19T08:25:35;14.37;;;9.13;;
68680;SDS011;55836;49.858;6.756;2023-01-19T08:28:01;13.00;;;9.47;;
68680;SDS011;55836;49.858;6.756;2023-01-19T08:30:28;14.03;;;9.00;;
68680;SDS011;55836;49.858;6.756;2023-01-19T08:32:54;16.03;;;9.30;;
68680;SDS011;55836;49.858;6.756;2023-01-19T08:35:32;14.90;;;9.07;;
68680;SDS011;55836;49.858;6.756;2023-01-19T08:37:59;11.23;;;8.23;;
68680;SDS011;55836;49.858;6.756;2023-01-19T08:40:26;15.07;;;8.40;;
68680;SDS011;55836;49.858;6.756;2023-01-19T08:42:56;13.83;;;10.17;;
68680;SDS011;55836;49.858;6.756;2023-01-19T08:45:24;13.93;;;9.87;;
68680;SDS011;55836;49.858;6.756;2023-01-19T08:47:51;12.83;;;8.17;;
68680;SDS011;55836;49.858;6.756;2023-01-19T08:50:17;13.80;;;8.97;;
68680;SDS011;55836;49.858;6.756;2023-01-19T08:52:43;11.67;;;8.40;;
68680;SDS011;55836;49.858;6.756;2023-01-19T08:55:09;12.23;;;9.10;;
68680;SDS011;55836;49.858;6.756;2023-01-19T08:57:35;16.37;;;9.40;;
68680;SDS011;55836;49.858;6.756;2023-01-19T09:00:02;13.93;;;10.10;;
68680;SDS011;55836;49.858;6.756;2023-01-19T09:02:28;15.03;;;9.83;;
68680;SDS011;55836;49.858;6.756;2023-01-19T09:04:54;13.07;;;9.80;;
68680;SDS011;55836;49.858;6.756;2023-01-19T09:07:20;14.43;;;10.40;;
68680;SDS011;55836;49.858;6.756;2023-01-19T09:09:46;17.20;;;10.40;;
68680;SDS011;55836;49.858;6.756;2023-01-19T09:12:12;13.80;;;9.70;;
68680;SDS011;55836;49.858;6.756;2023-01-19T09:14:38;14.60;;;9.10;;
68680;SDS011;55836;49.858;6.756;2023-01-19T09:17:04;12.90;;;10.00;;
68680;SDS011;55836;49.858;6.756;2023-01-19T09:19:30;13.50;;;9.97;;
68680;SDS011;55836;49.858;6.756;2023-01-19T09:21:56;17.80;;;10.60;;
68680;SDS011;55836;49.858;6.756;2023-01-19T09:24:23;19.30;;;13.27;;
68680;SDS011;55836;49.858;6.756;2023-01-19T09:26:50;15.30;;;10.33;;
68680;SDS011;55836;49.858;6.756;2023-01-19T09:29:16;20.20;;;14.80;;
68680;SDS011;55836;49.858;6.756;2023-01-19T09:31:42;28.23;;;16.63;;
68680;SDS011;55836;49.858;6.756;2023-01-19T09:34:09;15.93;;;11.63;;
68680;SDS011;55836;49.858;6.756;2023-01-19T09:36:36;21.07;;;12.07;;
68680;SDS011;55836;49.858;6.756;2023-01-19T09:39:03;18.77;;;12.33;;
68680;SDS011;55836;49.858;6.756;2023-01-19T09:41:30;16.80;;;10.97;;
68680;SDS011;55836;49.858;6.756;2023-01-19T09:43:58;19.03;;;11.57;;
68680;SDS011;55836;49.858;6.756;2023-01-19T09:46:35;19.93;;;11.33;;
68680;SDS011;55836;49.858;6.756;2023-01-19T09:51:42;16.07;;;11.53;;
68680;SDS011;55836;49.858;6.756;2023-01-19T09:56:38;17.87;;;11.27;;
68680;SDS011;55836;49.858;6.756;2023-01-19T10:04:26;17.53;;;11.30;;
68680;SDS011;55836;49.858;6.756;2023-01-19T10:07:02;17.43;;;11.70;;
68680;SDS011;55836;49.858;6.756;2023-01-19T10:09:31;18.10;;;12.23;;
68680;SDS011;55836;49.858;6.756;2023-01-19T10:12:10;16.60;;;10.67;;
68680;SDS011;55836;49.858;6.756;2023-01-19T10:14:59;15.03;;;10.13;;
68680;SDS011;55836;49.858;6.756;2023-01-19T10:17:42;15.97;;;10.80;;
68680;SDS011;55836;49.858;6.756;2023-01-19T10:20:15;15.63;;;11.40;;
68680;SDS011;55836;49.858;6.756;2023-01-19T10:22:42;17.20;;;10.60;;
68680;SDS011;55836;49.858;6.756;2023-01-19T10:25:13;14.63;;;10.23;;
68680;SDS011;55836;49.858;6.756;2023-01-19T10:27:40;15.10;;;10.60;;
68680;SDS011;55836;49.858;6.756;2023-01-19T10:30:07;15.03;;;9.77;;
68680;SDS011;55836;49.858;6.756;2023-01-19T10:32:34;15.13;;;9.33;;
68680;SDS011;55836;49.858;6.756;2023-01-19T10:35:03;19.77;;;12.30;;
68680;SDS011;55836;49.858;6.756;2023-01-19T10:37:37;13.13;;;8.87;;
68680;SDS011;55836;49.858;6.756;2023-01-19T10:42:35;12.83;;;8.53;;
68680;SDS011;55836;49.858;6.756;2023-01-19T10:45:01;12.57;;;8.73;;
68680;SDS011;55836;49.858;6.756;2023-01-19T10:47:30;14.00;;;8.90;;
68680;SDS011;55836;49.858;6.756;2023-01-19T10:49:58;11.33;;;8.20;;
68680;SDS011;55836;49.858;6.756;2023-01-19T10:52:28;11.80;;;8.93;;
68680;SDS011;55836;49.858;6.756;2023-01-19T10:54:55;12.57;;;9.40;;
68680;SDS011;55836;49.858;6.756;2023-01-19T10:57:30;11.13;;;8.17;;
68680;SDS011;55836;49.858;6.756;2023-01-19T10:59:58;13.30;;;8.50;;
68680;SDS011;55836;49.858;6.756;2023-01-19T11:02:28;12.80;;;8.90;;
68680;SDS011;55836;49.858;6.756;2023-01-19T11:04:55;9.03;;;7.43;;
68680;SDS011;55836;49.858;6.756;2023-01-19T11:09:49;11.40;;;7.07;;
68680;SDS011;55836;49.858;6.756;2023-01-19T11:12:17;10.07;;;7.27;;
68680;SDS011;55836;49.858;6.756;2023-01-19T11:14:45;11.17;;;7.77;;
68680;SDS011;55836;49.858;6.756;2023-01-19T11:17:29;11.07;;;7.40;;
68680;SDS011;55836;49.858;6.756;2023-01-19T11:19:56;9.87;;;7.23;;
68680;SDS011;55836;49.858;6.756;2023-01-19T11:22:27;9.67;;;7.33;;
68680;SDS011;55836;49.858;6.756;2023-01-19T11:25:01;11.87;;;6.93;;
68680;SDS011;55836;49.858;6.756;2023-01-19T11:27:29;12.07;;;8.87;;
68680;SDS011;55836;49.858;6.756;2023-01-19T11:30:00;14.37;;;8.13;;
68680;SDS011;55836;49.858;6.756;2023-01-19T11:32:29;12.20;;;8.23;;
68680;SDS011;55836;49.858;6.756;2023-01-19T11:34:57;12.43;;;7.70;;
68680;SDS011;55836;49.858;6.756;2023-01-19T11:37:26;10.43;;;8.07;;
68680;SDS011;55836;49.858;6.756;2023-01-19T11:39:58;10.07;;;8.30;;
68680;SDS011;55836;49.858;6.756;2023-01-19T11:42:27;11.37;;;8.63;;
68680;SDS011;55836;49.858;6.756;2023-01-19T11:47:26;12.00;;;7.57;;
68680;SDS011;55836;49.858;6.756;2023-01-19T11:52:26;11.67;;;7.63;;
68680;SDS011;55836;49.858;6.756;2023-01-19T11:54:54;9.97;;;7.20;;
68680;SDS011;55836;49.858;6.756;2023-01-19T11:57:22;10.00;;;7.27;;
68680;SDS011;55836;49.858;6.756;2023-01-19T11:59:48;16.17;;;8.03;;
68680;SDS011;55836;49.858;6.756;2023-01-19T12:02:16;9.90;;;7.70;;
68680;SDS011;55836;49.858;6.756;2023-01-19T12:04:43;11.13;;;7.13;;
68680;SDS011;55836;49.858;6.756;2023-01-19T12:07:10;8.30;;;6.87;;
68680;SDS011;55836;49.858;6.756;2023-01-19T12:09:47;10.13;;;7.33;;
68680;SDS011;55836;49.858;6.756;2023-01-19T12:12:23;11.93;;;7.20;;
68680;SDS011;55836;49.858;6.756;2023-01-19T12:15:07;13.37;;;8.33;;
68680;SDS011;55836;49.858;6.756;2023-01-19T12:17:38;13.23;;;7.87;;
68680;SDS011;55836;49.858;6.756;2023-01-19T12:20:12;10.70;;;7.80;;
68680;SDS011;55836;49.858;6.756;2023-01-19T12:22:43;12.17;;;7.47;;
68680;SDS011;55836;49.858;6.756;2023-01-19T12:27:42;10.43;;;8.20;;
68680;SDS011;55836;49.858;6.756;2023-01-19T12:32:42;14.80;;;9.90;;
68680;SDS011;55836;49.858;6.756;2023-01-19T12:37:53;11.63;;;8.23;;
68680;SDS011;55836;49.858;6.756;2023-01-19T12:40:23;12.90;;;8.90;;
68680;SDS011;55836;49.858;6.756;2023-01-19T12:43:00;14.13;;;9.57;;
68680;SDS011;55836;49.858;6.756;2023-01-19T12:45:31;11.37;;;8.00;;
68680;SDS011;55836;49.858;6.756;2023-01-19T12:47:57;15.93;;;8.90;;
68680;SDS011;55836;49.858;6.756;2023-01-19T12:50:24;13.30;;;9.30;;
68680;SDS011;55836;49.858;6.756;2023-01-19T12:53:00;15.23;;;9.30;;
68680;SDS011;55836;49.858;6.756;2023-01-19T12:55:28;24.37;;;15.50;;
68680;SDS011;55836;49.858;6.756;2023-01-19T12:58:15;14.43;;;10.27;;
68680;SDS011;55836;49.858;6.756;2023-01-19T13:00:43;12.93;;;9.23;;
68680;SDS011;55836;49.858;6.756;2023-01-19T13:15:47;10.53;;;7.77;;
68680;SDS011;55836;49.858;6.756;2023-01-19T13:18:19;13.67;;;7.97;;
68680;SDS011;55836;49.858;6.756;2023-01-19T13:20:49;12.00;;;7.97;;
68680;SDS011;55836;49.858;6.756;2023-01-19T13:23:17;8.90;;;7.07;;
68680;SDS011;55836;49.858;6.756;2023-01-19T13:25:48;10.43;;;7.10;;
68680;SDS011;55836;49.858;6.756;2023-01-19T13:28:16;11.17;;;7.33;;
68680;SDS011;55836;49.858;6.756;2023-01-19T13:30:50;12.07;;;8.57;;
68680;SDS011;55836;49.858;6.756;2023-01-19T13:33:21;13.40;;;6.80;;
68680;SDS011;55836;49.858;6.756;2023-01-19T13:35:52;11.33;;;8.00;;
68680;SDS011;55836;49.858;6.756;2023-01-19T13:38:19;14.63;;;7.53;;
68680;SDS011;55836;49.858;6.756;2023-01-19T13:40:46;10.23;;;7.67;;
68680;SDS011;55836;49.858;6.756;2023-01-19T13:43:14;13.23;;;9.47;;
68680;SDS011;55836;49.858;6.756;2023-01-19T13:45:44;14.10;;;8.73;;
68680;SDS011;55836;49.858;6.756;2023-01-19T13:48:13;14.00;;;8.20;;
68680;SDS011;55836;49.858;6.756;2023-01-19T13:50:40;14.80;;;13.23;;
68680;SDS011;55836;49.858;6.756;2023-01-19T13:53:27;15.03;;;8.60;;
68680;SDS011;55836;49.858;6.756;2023-01-19T13:58:39;12.23;;;8.40;;
68680;SDS011;55836;49.858;6.756;2023-01-19T14:01:05;12.03;;;8.07;;
68680;SDS011;55836;49.858;6.756;2023-01-19T14:03:32;14.83;;;11.77;;
68680;SDS011;55836;49.858;6.756;2023-01-19T14:05:58;13.87;;;8.30;;
68680;SDS011;55836;49.858;6.756;2023-01-19T14:08:24;11.87;;;7.60;;
68680;SDS011;55836;49.858;6.756;2023-01-19T14:13:17;10.60;;;6.17;;
68680;SDS011;55836;49.858;6.756;2023-01-19T14:15:44;9.43;;;7.20;;
68680;SDS011;55836;49.858;6.756;2023-01-19T14:23:41;13.77;;;7.20;;
68680;SDS011;55836;49.858;6.756;2023-01-19T14:28:52;13.03;;;8.07;;
68680;SDS011;55836;49.858;6.756;2023-01-19T14:33:45;10.67;;;6.60;;
68680;SDS011;55836;49.858;6.756;2023-01-19T14:38:52;10.17;;;7.00;;
68680;SDS011;55836;49.858;6.756;2023-01-19T14:41:39;11.67;;;6.83;;
68680;SDS011;55836;49.858;6.756;2023-01-19T14:44:14;8.97;;;6.70;;
68680;SDS011;55836;49.858;6.756;2023-01-19T14:46:45;10.00;;;7.63;;
68680;SDS011;55836;49.858;6.756;2023-01-19T14:49:15;10.90;;;7.00;;
68680;SDS011;55836;49.858;6.756;2023-01-19T14:51:43;10.37;;;6.17;;
68680;SDS011;55836;49.858;6.756;2023-01-19T14:54:11;9.43;;;6.33;;
68680;SDS011;55836;49.858;6.756;2023-01-19T14:56:40;12.17;;;7.27;;
68680;SDS011;55836;49.858;6.756;2023-01-19T14:59:07;10.90;;;7.57;;
68680;SDS011;55836;49.858;6.756;2023-01-19T15:01:34;10.43;;;7.40;;
68680;SDS011;55836;49.858;6.756;2023-01-19T15:04:01;9.83;;;7.07;;
68680;SDS011;55836;49.858;6.756;2023-01-19T15:06:27;11.97;;;7.60;;
68680;SDS011;55836;49.858;6.756;2023-01-19T15:08:53;12.77;;;8.50;;
68680;SDS011;55836;49.858;6.756;2023-01-19T15:11:29;10.33;;;8.10;;
68680;SDS011;55836;49.858;6.756;2023-01-19T15:13:57;13.93;;;11.43;;
68680;SDS011;55836;49.858;6.756;2023-01-19T15:16:23;10.17;;;6.87;;
68680;SDS011;55836;49.858;6.756;2023-01-19T15:18:49;11.63;;;7.93;;
68680;SDS011;55836;49.858;6.756;2023-01-19T15:21:16;16.87;;;10.00;;
68680;SDS011;55836;49.858;6.756;2023-01-19T15:23:48;11.70;;;7.60;;
68680;SDS011;55836;49.858;6.756;2023-01-19T15:26:15;10.80;;;8.20;;
68680;SDS011;55836;49.858;6.756;2023-01-19T15:28:41;12.60;;;8.50;;
68680;SDS011;55836;49.858;6.756;2023-01-19T15:31:10;10.90;;;7.23;;
68680;SDS011;55836;49.858;6.756;2023-01-19T15:33:38;11.03;;;6.73;;
68680;SDS011;55836;49.858;6.756;2023-01-19T15:36:04;12.23;;;8.20;;
68680;SDS011;55836;49.858;6.756;2023-01-19T15:38:31;10.83;;;6.50;;
68680;SDS011;55836;49.858;6.756;2023-01-19T15:40:57;9.00;;;5.73;;
68680;SDS011;55836;49.858;6.756;2023-01-19T15:43:23;8.97;;;5.60;;